createdAt,value
2023-03-27T00:02:32.886Z,1.50
2023-03-27T00:05:35.323Z,1.38
2023-03-27T00:08:37.238Z,1.55
2023-03-27T00:11:40.643Z,1.40
2023-03-27T00:14:42.541Z,1.70
2023-03-27T00:17:46.819Z,1.30
2023-03-27T00:20:48.792Z,1.60
2023-03-27T00:23:50.817Z,1.40
2023-03-27T00:26:54.991Z,1.58
2023-03-27T00:29:57.720Z,1.42
2023-03-27T00:32:59.751Z,1.60
2023-03-27T00:36:01.647Z,1.58
2023-03-27T00:39:05.152Z,1.30
2023-03-27T00:42:13.440Z,1.67
2023-03-27T00:45:18.467Z,1.55
2023-03-27T00:48:20.803Z,1.90
2023-03-27T00:51:25.359Z,1.88
2023-03-27T00:54:31.748Z,1.60
2023-03-27T00:57:37.036Z,1.67
2023-03-27T01:00:39.335Z,1.70
2023-03-27T01:03:42.719Z,1.50
2023-03-27T01:06:44.726Z,1.95
2023-03-27T01:09:46.605Z,3.20
2023-03-27T01:13:04.564Z,1.52
2023-03-27T01:16:11.910Z,2.17
2023-03-27T01:19:46.530Z,1.63
2023-03-27T01:23:58.603Z,1.52
2023-03-27T01:27:03.325Z,2.10
2023-03-27T01:30:14.012Z,1.20
2023-03-27T01:33:30.106Z,1.92
2023-03-27T01:37:06.678Z,1.73
2023-03-27T01:40:16.753Z,1.77
2023-03-27T01:43:26.558Z,2.30
2023-03-27T01:46:35.347Z,1.70
2023-03-27T01:49:43.236Z,1.35
2023-03-27T01:52:51.288Z,1.80
2023-03-27T01:55:59.186Z,1.45
2023-03-27T01:59:06.924Z,2.10
2023-03-27T02:02:13.428Z,1.77
2023-03-27T02:05:20.339Z,1.88
2023-03-27T02:08:27.387Z,2.10
2023-03-27T02:11:35.196Z,2.05
2023-03-27T02:14:42.382Z,1.35
2023-03-27T02:17:50.027Z,1.50
2023-03-27T02:20:52.117Z,1.50
2023-03-27T02:23:54.081Z,1.50
2023-03-27T02:27:02.033Z,1.67
2023-03-27T02:30:14.022Z,1.80
2023-03-27T02:33:23.396Z,1.25
2023-03-27T02:36:33.740Z,2.00
2023-03-27T02:39:41.479Z,1.80
2023-03-27T02:42:58.512Z,1.17
2023-03-27T02:46:06.463Z,1.63
2023-03-27T02:49:13.463Z,1.98
2023-03-27T02:52:21.096Z,2.33
2023-03-27T02:55:27.473Z,2.03
2023-03-27T02:58:36.426Z,2.03
2023-03-27T03:01:41.118Z,1.80
2023-03-27T03:04:46.805Z,1.90
2023-03-27T03:07:49.136Z,2.35
2023-03-27T03:10:51.058Z,1.70
2023-03-27T03:13:54.361Z,1.83
2023-03-27T03:16:56.349Z,2.40
2023-03-27T03:19:58.261Z,2.08
2023-03-27T03:23:00.612Z,2.58
2023-03-27T03:26:03.157Z,2.55
2023-03-27T03:29:06.455Z,2.75
2023-03-27T03:32:08.299Z,2.88
2023-03-27T03:35:10.352Z,2.47
2023-03-27T03:38:12.216Z,2.63
2023-03-27T03:41:14.181Z,2.75
2023-03-27T03:44:17.726Z,2.60
2023-03-27T03:47:19.701Z,2.45
2023-03-27T03:50:21.596Z,2.20
2023-03-27T03:53:23.572Z,2.30
2023-03-27T03:56:27.830Z,3.58
2023-03-27T03:59:31.404Z,3.80
2023-03-27T04:02:34.973Z,3.60
2023-03-27T04:05:37.723Z,2.80
2023-03-27T04:08:39.552Z,2.30
2023-03-27T04:11:41.443Z,2.70
2023-03-27T04:14:45.010Z,2.35
2023-03-27T04:17:48.649Z,2.75
2023-03-27T04:20:50.641Z,2.55
2023-03-27T04:23:52.555Z,2.67
2023-03-27T04:26:54.373Z,2.90
2023-03-27T04:30:01.239Z,2.92
2023-03-27T04:33:03.213Z,3.63
2023-03-27T04:36:09.426Z,3.25
2023-03-27T04:39:11.348Z,3.50
2023-03-27T04:42:16.967Z,2.75
2023-03-27T04:45:25.805Z,3.65
2023-03-27T04:48:27.855Z,3.40
2023-03-27T04:51:32.454Z,3.40
2023-03-27T04:54:34.405Z,4.60
2023-03-27T04:57:36.889Z,3.40
2023-03-27T05:00:40.440Z,3.53
2023-03-27T05:03:42.392Z,3.60
2023-03-27T05:06:44.493Z,2.80
2023-03-27T05:09:46.612Z,3.55
2023-03-27T05:12:51.721Z,3.38
2023-03-27T05:15:55.003Z,3.10
2023-03-27T05:18:56.942Z,3.75
2023-03-27T05:21:58.787Z,3.55
2023-03-27T05:25:01.658Z,3.92
2023-03-27T05:28:03.889Z,3.92
2023-03-27T05:31:08.794Z,3.97
2023-03-27T05:34:11.569Z,4.65
2023-03-27T05:37:13.474Z,4.90
2023-03-27T05:40:16.886Z,4.85
2023-03-27T05:43:18.822Z,4.90
2023-03-27T05:46:22.473Z,4.85
2023-03-27T05:49:24.451Z,4.38
2023-03-27T05:52:37.685Z,4.55
2023-03-27T05:59:29.716Z,3.95
2023-03-27T06:02:35.550Z,3.17
2023-03-27T06:05:40.351Z,4.35
2023-03-27T06:08:42.363Z,4.72
2023-03-27T06:11:44.931Z,3.60
2023-03-27T06:14:46.831Z,4.40
2023-03-27T06:17:50.196Z,3.88
2023-03-27T06:20:52.148Z,2.92
2023-03-27T06:23:54.372Z,2.92
2023-03-27T06:26:59.374Z,2.40
2023-03-27T06:30:01.441Z,2.13
2023-03-27T06:33:05.833Z,2.05
2023-03-27T06:36:08.729Z,1.08
2023-03-27T06:39:11.473Z,1.17
2023-03-27T06:42:13.635Z,1.25
2023-03-27T06:45:15.777Z,1.23
2023-03-27T06:48:22.514Z,1.48
2023-03-27T06:51:27.031Z,2.15
2023-03-27T06:54:29.507Z,1.25
2023-03-27T06:57:31.712Z,1.08
2023-03-27T07:00:35.562Z,1.40
2023-03-27T07:03:38.941Z,3.22
2023-03-27T07:06:40.952Z,2.70
2023-03-27T07:09:42.948Z,1.40
2023-03-27T07:12:51.197Z,1.80
2023-03-27T07:15:53.254Z,1.75
2023-03-27T07:18:59.428Z,1.80
2023-03-27T07:22:03.293Z,1.83
2023-03-27T07:25:06.661Z,2.13
2023-03-27T07:28:12.550Z,1.35
2023-03-27T07:31:31.600Z,1.65
2023-03-27T07:34:39.806Z,1.92
2023-03-27T07:37:42.853Z,1.85
2023-03-27T07:40:46.623Z,1.80
2023-03-27T07:43:48.764Z,1.90
2023-03-27T07:46:52.849Z,2.10
2023-03-27T07:49:56.331Z,1.92
2023-03-27T07:52:58.385Z,1.77
2023-03-27T07:56:00.511Z,2.35
2023-03-27T07:59:02.486Z,2.10
2023-03-27T08:02:05.868Z,2.67
2023-03-27T08:05:11.458Z,2.70
2023-03-27T08:08:13.512Z,2.72
2023-03-27T08:11:27.231Z,3.10
2023-03-27T08:14:33.275Z,2.97
2023-03-27T08:17:36.170Z,3.08
2023-03-27T08:20:39.781Z,3.13
2023-03-27T08:23:43.828Z,3.22
2023-03-27T08:26:46.645Z,2.67
2023-03-27T08:29:49.372Z,3.17
2023-03-27T08:32:51.840Z,3.25
2023-03-27T08:35:59.355Z,3.20
2023-03-27T08:39:02.804Z,3.28
2023-03-27T08:42:13.953Z,3.63
2023-03-27T08:45:21.025Z,3.47
2023-03-27T08:48:28.762Z,3.40
2023-03-27T08:51:37.353Z,3.45
2023-03-27T08:54:40.412Z,3.42
2023-03-27T08:57:43.980Z,3.45
2023-03-27T09:00:52.882Z,3.75
2023-03-27T09:04:03.041Z,3.47
2023-03-27T09:07:11.724Z,3.10
2023-03-27T09:10:21.562Z,3.38
2023-03-27T09:13:30.745Z,3.80
2023-03-27T09:16:35.968Z,3.40
2023-03-27T09:19:46.238Z,3.70
2023-03-27T09:22:54.552Z,3.70
2023-03-27T09:26:00.158Z,4.13
2023-03-27T09:29:05.218Z,3.67
2023-03-27T09:32:14.344Z,4.13
2023-03-27T09:35:19.205Z,5.13
2023-03-27T09:38:30.042Z,5.07
2023-03-27T09:41:37.756Z,5.18
2023-03-27T09:44:42.622Z,4.28
2023-03-27T09:47:52.132Z,4.25
2023-03-27T09:50:54.477Z,4.82
2023-03-27T09:53:59.267Z,5.32
2023-03-27T09:57:07.216Z,5.25
2023-03-27T10:00:27.815Z,4.15
2023-03-27T10:03:37.880Z,4.53
2023-03-27T10:06:44.775Z,4.05
2023-03-27T10:10:04.147Z,4.30
2023-03-27T10:13:09.681Z,3.75
2023-03-27T10:16:12.088Z,4.03
2023-03-27T10:19:23.681Z,3.95
2023-03-27T10:22:29.689Z,4.38
2023-03-27T10:28:39.175Z,5.78
2023-03-27T10:31:50.190Z,5.15
2023-03-27T10:34:54.124Z,5.03
2023-03-27T10:37:56.692Z,4.55
2023-03-27T10:41:04.231Z,4.47
2023-03-27T10:44:14.100Z,4.95
2023-03-27T10:47:19.172Z,4.85
2023-03-27T10:50:24.734Z,4.53
2023-03-27T10:53:37.339Z,4.60
2023-03-27T10:56:51.710Z,5.20
2023-03-27T10:59:59.693Z,4.05
2023-03-27T11:03:11.635Z,4.85
2023-03-27T11:06:16.919Z,4.95
2023-03-27T11:09:24.584Z,3.95
2023-03-27T11:12:32.091Z,3.80
2023-03-27T11:15:38.377Z,4.03
2023-03-27T11:18:45.674Z,4.38
2023-03-27T11:21:53.045Z,3.78
2023-03-27T11:25:00.821Z,4.32
2023-03-27T11:28:14.233Z,5.65
2023-03-27T11:31:38.262Z,9.02
2023-03-27T11:34:48.453Z,10.77
2023-03-27T11:37:57.414Z,13.88
2023-03-27T11:41:00.089Z,17.23
2023-03-27T11:44:04.227Z,20.08
2023-03-27T11:47:26.829Z,19.77
2023-03-27T11:50:36.665Z,21.58
2023-03-27T11:53:52.105Z,20.00
2023-03-27T11:56:55.987Z,20.38
2023-03-27T12:00:18.376Z,19.88
2023-03-27T12:03:34.886Z,21.15
2023-03-27T12:06:47.508Z,19.08
2023-03-27T12:10:04.964Z,18.08
2023-03-27T12:13:41.136Z,17.25
2023-03-27T12:17:00.325Z,17.55
2023-03-27T12:20:28.576Z,17.10
2023-03-27T12:23:54.231Z,13.40
2023-03-27T12:27:23.589Z,11.43
2023-03-27T12:30:35.557Z,10.95
2023-03-27T12:36:53.727Z,7.75
2023-03-27T12:39:59.176Z,6.13
2023-03-27T12:43:10.662Z,5.97
2023-03-27T12:46:30.566Z,5.53
2023-03-27T12:49:47.946Z,5.00
2023-03-27T12:52:53.363Z,4.22
2023-03-27T12:56:34.864Z,4.22
2023-03-27T12:59:39.530Z,3.33
2023-03-27T13:03:03.194Z,2.72
2023-03-27T13:06:27.272Z,2.85
2023-03-27T13:09:47.039Z,2.42
2023-03-27T13:13:05.852Z,3.20
2023-03-27T13:19:34.266Z,2.60
2023-03-27T13:22:54.783Z,2.70
2023-03-27T13:26:14.504Z,2.70
2023-03-27T13:29:20.872Z,2.03
2023-03-27T13:32:36.598Z,2.20
2023-03-27T13:40:07.999Z,2.10
2023-03-27T13:43:21.824Z,2.03
2023-03-27T13:46:29.483Z,2.42
2023-03-27T13:49:49.128Z,2.75
2023-03-27T13:53:16.593Z,2.63
2023-03-27T14:13:40.169Z,3.83
2023-03-27T14:16:56.779Z,4.40
2023-03-27T14:20:15.163Z,4.07
2023-03-27T14:26:25.757Z,4.43
2023-03-27T14:29:29.728Z,3.25
2023-03-27T14:32:31.787Z,3.42
2023-03-27T14:35:36.533Z,3.28
2023-03-27T14:38:38.531Z,3.25
2023-03-27T14:41:46.202Z,3.03
2023-03-27T14:44:49.522Z,3.10
2023-03-27T14:47:54.453Z,3.90
2023-03-27T14:51:04.477Z,3.17
2023-03-27T14:54:10.690Z,2.58
2023-03-27T15:00:21.520Z,3.28
2023-03-27T15:03:26.626Z,3.00
2023-03-27T15:06:29.510Z,2.60
2023-03-27T15:09:31.592Z,2.83
2023-03-27T15:12:34.235Z,2.80
2023-03-27T15:15:40.861Z,3.40
2023-03-27T15:18:56.526Z,2.65
2023-03-27T15:22:03.123Z,3.10
2023-03-27T15:25:08.794Z,2.78
2023-03-27T15:28:17.764Z,2.63
2023-03-27T15:31:21.477Z,2.90
2023-03-27T15:34:25.598Z,2.55
2023-03-27T15:37:29.394Z,2.72
2023-03-27T15:40:36.947Z,2.95
2023-03-27T15:43:39.869Z,2.33
2023-03-27T15:46:50.159Z,2.40
2023-03-27T15:50:15.029Z,2.33
2023-03-27T15:53:30.474Z,2.83
2023-03-27T15:56:40.785Z,2.33
2023-03-27T15:59:51.886Z,2.70
2023-03-27T16:02:56.946Z,2.58
2023-03-27T16:06:00.699Z,2.83
2023-03-27T16:09:05.464Z,3.03
2023-03-27T16:12:12.385Z,2.40
2023-03-27T16:15:28.494Z,2.40
2023-03-27T16:18:34.676Z,2.83
2023-03-27T16:24:41.658Z,2.85
2023-03-27T16:27:48.590Z,2.75
2023-03-27T16:30:52.030Z,3.13
2023-03-27T16:33:56.014Z,3.10
2023-03-27T16:36:59.816Z,3.33
2023-03-27T16:40:05.983Z,2.90
2023-03-27T16:43:08.690Z,2.80
2023-03-27T16:46:17.179Z,2.30
2023-03-27T16:49:21.021Z,2.80
2023-03-27T16:52:23.232Z,2.60
2023-03-27T16:55:26.164Z,2.35
2023-03-27T16:58:28.181Z,3.05
2023-03-27T17:01:30.904Z,2.70
2023-03-27T17:04:36.147Z,2.88
2023-03-27T17:07:41.009Z,2.42
2023-03-27T17:10:43.679Z,2.60
2023-03-27T17:13:46.832Z,2.80
2023-03-27T17:16:49.243Z,2.38
2023-03-27T17:19:52.844Z,2.72
2023-03-27T17:22:56.150Z,2.40
2023-03-27T17:25:59.953Z,2.67
2023-03-27T17:29:05.367Z,2.97
2023-03-27T17:32:07.658Z,2.90
2023-03-27T17:35:12.731Z,3.13
2023-03-27T17:38:15.560Z,2.70
2023-03-27T17:41:19.322Z,2.65
2023-03-27T17:44:24.835Z,3.20
2023-03-27T17:47:27.534Z,2.80
2023-03-27T17:50:32.248Z,2.75
2023-03-27T17:53:34.831Z,3.30
2023-03-27T17:56:38.580Z,3.13
2023-03-27T17:59:41.677Z,3.08
2023-03-27T18:02:44.890Z,3.47
2023-03-27T18:05:49.349Z,2.72
2023-03-27T18:08:51.539Z,3.10
2023-03-27T18:11:54.363Z,3.20
2023-03-27T18:14:57.028Z,3.00
2023-03-27T18:18:00.329Z,3.03
2023-03-27T18:21:08.338Z,2.90
2023-03-27T18:24:11.632Z,2.88
2023-03-27T18:27:16.637Z,3.15
2023-03-27T18:30:21.865Z,4.10
2023-03-27T18:33:24.781Z,2.72
2023-03-27T18:36:29.285Z,2.85
2023-03-27T18:39:37.495Z,2.90
2023-03-27T18:42:47.777Z,2.83
2023-03-27T18:45:57.246Z,2.70
2023-03-27T18:49:10.288Z,2.60
2023-03-27T18:52:23.897Z,2.67
2023-03-27T18:55:27.749Z,2.72
2023-03-27T18:58:31.472Z,3.10
2023-03-27T19:01:35.070Z,2.67
2023-03-27T19:04:39.190Z,3.55
2023-03-27T19:07:44.322Z,2.75
2023-03-27T19:10:49.251Z,2.97
2023-03-27T19:13:55.697Z,4.32
2023-03-27T19:20:01.368Z,2.30
2023-03-27T19:23:06.369Z,2.60
2023-03-27T19:26:11.632Z,2.90
2023-03-27T19:29:16.946Z,2.90
2023-03-27T19:32:23.852Z,2.83
2023-03-27T19:35:27.481Z,2.55
2023-03-27T19:38:32.649Z,2.63
2023-03-27T19:41:37.036Z,3.00
2023-03-27T19:44:40.452Z,3.17
2023-03-27T19:47:43.970Z,2.90
2023-03-27T19:50:49.477Z,2.70
2023-03-27T19:53:55.955Z,2.55
2023-03-27T19:57:00.585Z,2.45
2023-03-27T20:00:07.563Z,2.65
2023-03-27T20:03:13.577Z,2.75
2023-03-27T20:06:19.434Z,2.10
2023-03-27T20:09:27.366Z,2.25
2023-03-27T20:12:33.045Z,2.28
2023-03-27T20:15:40.398Z,2.10
2023-03-27T20:18:43.408Z,1.95
2023-03-27T20:21:46.582Z,2.25
2023-03-27T20:24:50.959Z,2.30
2023-03-27T20:27:53.165Z,1.27
2023-03-27T20:31:02.068Z,2.78
2023-03-27T20:34:06.074Z,2.20
2023-03-27T20:37:12.107Z,2.78
2023-03-27T20:40:16.457Z,1.83
2023-03-27T20:43:19.600Z,2.25
2023-03-27T20:46:22.124Z,2.35
2023-03-27T20:52:29.888Z,2.13
2023-03-27T20:55:37.539Z,1.80
2023-03-27T20:58:44.386Z,1.55
2023-03-27T21:01:46.894Z,2.08
2023-03-27T21:04:48.954Z,2.28
2023-03-27T21:07:52.705Z,2.70
2023-03-27T21:10:55.980Z,2.40
2023-03-27T21:13:57.857Z,2.15
2023-03-27T21:17:01.168Z,2.00
2023-03-27T21:20:04.798Z,2.25
2023-03-27T21:23:07.618Z,2.20
2023-03-27T21:26:11.084Z,2.38
2023-03-27T21:29:14.103Z,2.55
2023-03-27T21:32:16.667Z,2.15
2023-03-27T21:35:18.705Z,1.92
2023-03-27T21:38:21.607Z,2.15
2023-03-27T21:41:26.098Z,2.10
2023-03-27T21:44:28.035Z,2.30
2023-03-27T21:47:44.570Z,1.85
2023-03-27T21:50:49.236Z,1.77
2023-03-27T21:53:53.215Z,1.70
2023-03-27T21:56:56.514Z,1.75
2023-03-27T21:59:58.544Z,2.08
2023-03-27T22:03:00.413Z,1.75
2023-03-27T22:09:12.494Z,1.95
2023-03-27T22:12:16.805Z,2.15
2023-03-27T22:15:18.779Z,1.95
2023-03-27T22:18:21.661Z,1.85
2023-03-27T22:21:25.884Z,2.05
2023-03-27T22:24:28.488Z,1.70
2023-03-27T22:27:31.828Z,1.98
2023-03-27T22:30:33.883Z,2.10
2023-03-27T22:33:36.578Z,1.83
2023-03-27T22:36:38.569Z,1.90
2023-03-27T22:39:40.507Z,2.03
2023-03-27T22:42:43.723Z,1.90
2023-03-27T22:45:45.571Z,2.00
2023-03-27T22:48:53.101Z,2.30
2023-03-27T22:51:55.065Z,1.85
2023-03-27T22:54:57.399Z,1.90
2023-03-27T22:58:00.716Z,2.10
2023-03-27T23:01:04.643Z,1.90
2023-03-27T23:04:06.563Z,2.30
2023-03-27T23:07:10.032Z,2.33
2023-03-27T23:10:11.896Z,2.95
2023-03-27T23:13:15.277Z,2.10
2023-03-27T23:16:17.390Z,1.67
2023-03-27T23:19:19.223Z,2.20
2023-03-27T23:22:21.095Z,2.45
2023-03-27T23:25:23.222Z,2.30
2023-03-27T23:28:29.459Z,2.17
2023-03-27T23:34:33.901Z,2.75
2023-03-27T23:37:36.684Z,2.30
2023-03-27T23:40:38.933Z,2.25
2023-03-27T23:43:42.702Z,2.58
2023-03-27T23:46:47.605Z,2.53
2023-03-27T23:49:50.350Z,2.53
2023-03-27T23:52:52.157Z,1.92
2023-03-27T23:55:54.540Z,2.38
2023-03-27T23:58:58.602Z,1.90
